Swedona, Illinois
Current Conditions -  °F | °C
As of 4:13 AM on Friday 24 Oct 2014 (Local Time) from KMLI Reporting Station
Haze Haze  
Wind Chill: 46°   Ceiling: 1100
Heat Index: 46°   Visibility: 3mi
Dew Point: 45°   Wind: 0mph
Humidity: 96%   Direction: NA
Pressure: 30.06"   Gusts: NA
Location:  41.2827°N, 90.3344°W
Report Text: KMLI 240913Z AUTO 00000KT 3SM BR OVC011 08/07 A3006 RMK AO2 T00780072
Loading
Personal Weather Stations






























Interactive Weather Map
Tropical Storm Tracking
New forecast layout! Learn more

10-Day Weather Forecast

Advertisements
Track Severe Weather on mobile